createdAt,value
2022-10-18T00:06:26.507Z,66.01
2022-10-18T00:13:08.931Z,65.68
2022-10-18T00:19:32.082Z,65.52
2022-10-18T00:25:56.578Z,65.21
2022-10-18T00:32:40.515Z,65.04
2022-10-18T00:39:23.213Z,64.88
2022-10-18T00:46:12.495Z,64.80
2022-10-18T00:53:04.436Z,64.85
2022-10-18T00:59:47.541Z,64.84
2022-10-18T01:06:30.373Z,65.01
2022-10-18T01:13:22.080Z,64.98
2022-10-18T01:20:15.827Z,65.02
2022-10-18T01:27:01.613Z,65.25
2022-10-18T01:40:34.192Z,65.66
2022-10-18T01:47:16.913Z,65.79
2022-10-18T01:54:03.167Z,65.90
2022-10-18T02:00:55.138Z,66.11
2022-10-18T02:07:38.163Z,66.06
2022-10-18T02:14:21.099Z,66.25
2022-10-18T02:21:05.257Z,66.12
2022-10-18T02:27:47.805Z,66.20
2022-10-18T02:34:31.329Z,66.28
2022-10-18T02:41:15.511Z,66.40
2022-10-18T02:47:58.549Z,66.63
2022-10-18T02:54:41.953Z,66.65
2022-10-18T03:01:27.508Z,66.74
2022-10-18T03:08:10.675Z,66.83
2022-10-18T03:14:53.556Z,67.12
2022-10-18T03:21:36.396Z,67.46
2022-10-18T03:28:19.362Z,67.45
2022-10-18T03:35:02.593Z,67.29
2022-10-18T03:41:45.719Z,68.24
2022-10-18T03:48:28.927Z,68.73
2022-10-18T03:55:11.999Z,68.58
2022-10-18T04:01:55.182Z,68.26
2022-10-18T04:08:38.218Z,68.26
2022-10-18T04:15:24.196Z,68.11
2022-10-18T04:22:07.581Z,68.08
2022-10-18T04:28:57.292Z,68.14
2022-10-18T04:35:40.278Z,67.92
2022-10-18T04:42:23.379Z,68.02
2022-10-18T04:49:12.027Z,68.66
2022-10-18T04:55:58.886Z,68.84
2022-10-18T05:02:44.306Z,69.13
2022-10-18T05:09:29.014Z,69.27
2022-10-18T05:16:21.897Z,69.33
2022-10-18T05:23:11.194Z,69.30
2022-10-18T05:30:05.897Z,69.67
2022-10-18T05:36:57.785Z,69.89
2022-10-18T05:43:41.885Z,69.42
2022-10-18T05:49:13.864Z,69.23
2022-10-18T05:54:44.316Z,68.76
2022-10-18T06:00:10.490Z,68.50
2022-10-18T06:11:08.623Z,67.99
2022-10-18T06:16:52.712Z,67.65
2022-10-18T06:22:46.794Z,67.28
2022-10-18T06:28:13.923Z,66.87
2022-10-18T06:33:37.298Z,66.64
2022-10-18T06:39:02.304Z,66.62
2022-10-18T06:44:24.859Z,66.29
2022-10-18T06:50:12.485Z,65.60
2022-10-18T06:56:39.608Z,64.96
2022-10-18T07:03:22.538Z,64.21
2022-10-18T07:10:05.484Z,63.29
2022-10-18T07:16:49.953Z,62.06
2022-10-18T07:23:32.520Z,60.64
2022-10-18T07:30:15.355Z,59.70
2022-10-18T07:36:57.174Z,58.61
2022-10-18T07:43:39.707Z,58.18
2022-10-18T07:50:22.378Z,57.77
2022-10-18T07:56:47.587Z,56.89
2022-10-18T08:03:30.455Z,56.80
2022-10-18T08:10:15.458Z,55.92
2022-10-18T08:17:03.945Z,55.07
2022-10-18T08:23:48.075Z,54.25
2022-10-18T08:30:31.240Z,53.01
2022-10-18T08:37:13.459Z,52.07
2022-10-18T08:44:14.431Z,51.05
2022-10-18T08:50:32.291Z,50.04
2022-10-18T08:57:15.197Z,49.30
2022-10-18T09:04:15.264Z,48.60
2022-10-18T09:10:29.967Z,47.99
2022-10-18T09:17:03.537Z,49.15
2022-10-18T09:23:53.376Z,50.95
2022-10-18T09:29:59.482Z,48.55
2022-10-18T09:36:53.554Z,49.40
2022-10-18T09:43:40.707Z,50.61
2022-10-18T09:57:37.859Z,47.65
2022-10-18T12:28:10.018Z,38.21
2022-10-18T12:35:08.357Z,37.94
2022-10-18T12:54:52.908Z,37.54
2022-10-18T13:01:39.589Z,37.67
2022-10-18T13:08:25.408Z,37.74
2022-10-18T13:15:24.214Z,37.82
2022-10-18T13:21:37.839Z,38.15
2022-10-18T13:27:56.543Z,38.22
2022-10-18T13:33:38.719Z,38.42
2022-10-18T13:39:02.620Z,38.66
2022-10-18T13:45:29.903Z,38.62
2022-10-18T13:52:16.472Z,38.55
2022-10-18T13:58:31.268Z,38.62
2022-10-18T14:05:24.756Z,38.93
2022-10-18T14:12:08.248Z,39.31
2022-10-18T14:18:42.214Z,39.61
2022-10-18T14:24:50.967Z,39.70
2022-10-18T14:31:34.806Z,40.17
2022-10-18T14:37:51.270Z,40.49
2022-10-18T14:43:56.323Z,39.99
2022-10-18T14:50:06.066Z,40.23
2022-10-18T14:57:01.793Z,40.75
2022-10-18T15:03:23.855Z,41.61
2022-10-18T15:09:45.510Z,42.08
2022-10-18T15:15:47.192Z,42.81
2022-10-18T15:29:13.233Z,44.76
2022-10-18T15:36:01.227Z,45.68
2022-10-18T15:42:42.951Z,46.57
2022-10-18T15:49:25.677Z,47.37
2022-10-18T15:56:23.033Z,48.34
2022-10-18T16:03:05.475Z,48.84
2022-10-18T16:09:51.867Z,49.45
2022-10-18T16:16:33.815Z,50.12
2022-10-18T16:23:15.484Z,50.56
2022-10-18T16:30:00.032Z,51.00
2022-10-18T16:36:46.144Z,51.39
2022-10-18T16:43:32.715Z,53.95
2022-10-18T16:50:16.378Z,53.65
2022-10-18T16:56:39.255Z,53.44
2022-10-18T17:02:31.901Z,53.31
2022-10-18T17:08:36.872Z,53.13
2022-10-18T17:15:09.993Z,52.79
2022-10-18T17:20:52.873Z,51.53
2022-10-18T17:26:34.294Z,52.40
2022-10-18T17:31:55.600Z,52.25
2022-10-18T17:38:16.930Z,52.65
2022-10-18T17:44:14.589Z,53.19
2022-10-18T17:50:36.560Z,54.13
2022-10-18T17:56:20.217Z,54.74
2022-10-18T18:01:50.657Z,55.37
2022-10-18T18:07:20.948Z,55.88
2022-10-18T18:13:42.738Z,56.39
2022-10-18T18:20:25.298Z,57.31
2022-10-18T18:27:07.619Z,58.06
2022-10-18T18:33:49.264Z,58.64
2022-10-18T18:40:18.273Z,59.53
2022-10-18T18:45:59.748Z,61.38
2022-10-18T18:51:23.071Z,67.28
2022-10-18T18:56:43.916Z,71.92
2022-10-18T19:02:06.251Z,75.43
2022-10-18T19:07:28.712Z,77.87
2022-10-18T19:12:50.539Z,80.78
2022-10-18T19:18:23.180Z,83.16
2022-10-18T19:23:50.323Z,84.03
2022-10-18T19:29:18.428Z,84.77
2022-10-18T19:34:43.620Z,85.14
2022-10-18T19:40:26.234Z,85.90
2022-10-18T19:45:52.380Z,87.19
2022-10-18T19:51:34.072Z,87.23
2022-10-18T19:57:05.059Z,88.00
2022-10-18T20:02:35.894Z,89.28
2022-10-18T20:07:59.812Z,89.70
2022-10-18T20:13:42.685Z,89.83
2022-10-18T20:19:07.771Z,89.96
2022-10-18T20:24:29.505Z,90.70
2022-10-18T20:30:37.333Z,91.38
2022-10-18T20:36:11.669Z,91.69
2022-10-18T20:41:34.625Z,92.06
2022-10-18T20:46:58.644Z,91.94
2022-10-18T20:53:55.507Z,91.93
2022-10-18T21:00:40.141Z,92.63
2022-10-18T21:07:23.922Z,92.06
2022-10-18T21:14:09.321Z,90.45
2022-10-18T21:20:55.775Z,88.83
2022-10-18T21:27:39.987Z,86.39
2022-10-18T21:34:23.176Z,87.11
2022-10-18T21:41:06.204Z,87.55
2022-10-18T21:47:49.749Z,88.19
2022-10-18T21:54:34.882Z,88.67
2022-10-18T22:01:18.859Z,89.00
2022-10-18T22:08:01.762Z,88.93
2022-10-18T22:14:45.749Z,88.86
2022-10-18T22:21:34.649Z,89.01
2022-10-18T22:28:18.205Z,89.00
2022-10-18T22:35:06.782Z,89.57
2022-10-18T22:41:59.977Z,90.19
2022-10-18T22:47:38.527Z,90.33
2022-10-18T22:53:13.375Z,90.40
2022-10-18T22:58:49.566Z,90.21
2022-10-18T23:04:37.514Z,89.82
2022-10-18T23:15:40.451Z,88.63
2022-10-18T23:21:22.412Z,88.83
2022-10-18T23:27:30.699Z,88.60
2022-10-18T23:32:59.570Z,88.39
2022-10-18T23:38:50.752Z,88.53
2022-10-18T23:44:25.001Z,88.09
2022-10-18T23:50:30.675Z,87.70
